Cleo Springs, Oklahoma
Current Conditions -  °F | °C
As of 6:15 AM on Thursday 29 Jan 2015 (Local Time) from KAVK Reporting Station
Few Clouds Few Clouds  
Wind Chill: 40°   Ceiling: Unl
Heat Index: 46°   Visibility: 10mi
Dew Point: 32°   Wind: 16mph
Humidity: 57%   Direction: 360°N
Pressure: 30.3"   Gusts: NA
Location:  36.41°N, 98.44°W
Report Text: KAVK 291215Z AUTO 36014KT 10SM FEW026 08/00 A3030 RMK AO2
Loading
Personal Weather Stations






























Interactive Weather Map New forecast layout! Learn more

10-Day Weather Forecast

Advertisements
Track Severe Weather on mobile